Time;durP1;ratioP1;P1;durP2;ratioP2;P2;SDS_P1;SDS_P2;PMS_P1;PMS_P2;Temp;Humidity;BMP_temperature;BMP_pressure;BME280_temperature;BME280_humidity;BME280_pressure;Samples;Min_cycle;Max_cycle;Signal;HPM_P1;HPM_P2
2022/10/24 00:00:17;;;;;;;5.40;2.08;;;15.00;99.90;;;;;;4967255;28;20042;-66
2022/10/24 00:02:43;;;;;;;6.32;2.50;;;15.20;99.90;;;;;;4967449;28;20039;-66
2022/10/24 00:05:14;;;;;;;5.93;2.15;;;15.20;99.90;;;;;;4967461;28;20038;-66
2022/10/24 00:07:41;;;;;;;5.75;1.92;;;15.10;99.90;;;;;;4959212;28;20046;-66
2022/10/24 00:10:07;;;;;;;4.22;1.65;;;15.10;99.90;;;;;;4967209;28;20579;-66
2022/10/24 00:12:33;;;;;;;5.30;1.83;;;15.10;99.90;;;;;;4966659;28;20046;-66
2022/10/24 00:14:59;;;;;;;8.32;1.73;;;15.20;99.90;;;;;;4965417;28;20070;-66
2022/10/24 00:17:25;;;;;;;6.85;2.47;;;15.20;99.90;;;;;;4968030;28;20562;-66
2022/10/24 00:19:53;;;;;;;5.22;2.00;;;15.30;99.90;;;;;;4967736;28;20049;-66
2022/10/24 00:22:19;;;;;;;6.78;1.80;;;15.20;99.90;;;;;;4966932;28;20057;-66
2022/10/24 00:24:45;;;;;;;5.20;1.98;;;15.00;99.90;;;;;;4966679;28;20426;-66
2022/10/24 00:27:11;;;;;;;3.67;1.90;;;15.00;99.90;;;;;;4966192;28;20054;-67
2022/10/24 00:29:36;;;;;;;6.70;2.17;;;14.90;99.90;;;;;;4966985;28;20053;-66
2022/10/24 00:32:02;;;;;;;5.50;2.13;;;14.90;99.90;;;;;;4966609;28;20095;-66
2022/10/24 00:34:28;;;;;;;5.22;1.98;;;14.80;99.90;;;;;;4963848;28;20046;-66
2022/10/24 00:36:54;;;;;;;5.85;2.47;;;14.70;99.90;;;;;;4985991;28;20034;-67
2022/10/24 00:39:19;;;;;;;4.78;2.25;;;14.70;99.90;;;;;;4985855;28;20069;-66
2022/10/24 00:41:45;;;;;;;6.88;2.67;;;14.60;99.90;;;;;;4982553;28;20038;-66
2022/10/24 00:44:15;;;;;;;5.50;2.33;;;14.70;99.90;;;;;;4985656;28;20096;-66
2022/10/24 00:46:46;;;;;;;7.20;2.30;;;14.60;99.90;;;;;;4985341;28;20042;-66
2022/10/24 00:49:16;;;;;;;6.97;2.25;;;14.60;99.90;;;;;;4968297;28;20486;-66
2022/10/24 00:51:45;;;;;;;7.82;2.88;;;14.50;99.90;;;;;;4986237;28;20042;-66
2022/10/24 00:54:12;;;;;;;4.97;2.13;;;14.60;99.90;;;;;;4986014;28;20057;-67
2022/10/24 00:56:48;;;;;;;8.13;2.47;;;14.60;99.90;;;;;;4966403;28;20058;-67
2022/10/24 00:59:16;;;;;;;8.63;2.40;;;14.30;99.90;;;;;;4985715;28;20046;-68
2022/10/24 01:01:44;;;;;;;8.32;2.25;;;14.40;99.90;;;;;;4985744;28;20046;-67
2022/10/24 01:04:13;;;;;;;4.10;2.45;;;14.30;99.90;;;;;;4985814;28;20081;-67
2022/10/24 01:06:43;;;;;;;4.75;2.30;;;14.40;99.90;;;;;;4965808;28;20050;-66
2022/10/24 01:09:32;;;;;;;5.47;2.67;;;14.50;99.90;;;;;;4948238;28;20101;-66
2022/10/24 01:12:09;;;;;;;8.18;2.42;;;14.30;99.90;;;;;;4964173;28;20750;-67
2022/10/24 01:14:42;;;;;;;5.20;1.75;;;14.40;99.90;;;;;;4964969;28;20058;-67
2022/10/24 01:17:08;;;;;;;7.63;2.27;;;14.20;99.90;;;;;;4965796;28;20694;-67
2022/10/24 01:20:19;;;;;;;6.22;2.08;;;14.40;99.90;;;;;;4966134;28;20689;-67
2022/10/24 01:22:59;;;;;;;5.95;2.15;;;14.20;99.90;;;;;;4912792;28;20070;-68
2022/10/24 01:25:56;;;;;;;5.15;2.08;;;14.40;99.90;;;;;;4946790;28;20054;-67
2022/10/24 01:28:27;;;;;;;5.90;2.35;;;14.40;99.90;;;;;;4966787;28;20487;-67
2022/10/24 01:31:28;;;;;;;5.50;2.15;;;14.50;99.90;;;;;;4965519;28;20043;-66
2022/10/24 01:34:05;;;;;;;4.28;1.98;;;14.40;99.90;;;;;;4954247;28;20050;-67
2022/10/24 01:36:37;;;;;;;4.53;1.67;;;14.60;99.90;;;;;;4966157;28;20050;-66
2022/10/24 01:39:09;;;;;;;4.60;1.60;;;14.70;99.90;;;;;;4948654;28;20058;-67
2022/10/24 01:41:35;;;;;;;5.25;1.80;;;14.70;99.90;;;;;;4964330;28;20047;-66
2022/10/24 01:44:07;;;;;;;5.28;1.60;;;14.70;99.90;;;;;;4965604;28;20046;-67
2022/10/24 01:46:49;;;;;;;6.75;1.88;;;14.80;99.90;;;;;;4964672;28;20043;-67
2022/10/24 01:49:17;;;;;;;6.05;1.58;;;14.80;99.90;;;;;;4965901;28;20051;-67
2022/10/24 01:51:47;;;;;;;5.63;2.20;;;14.90;99.90;;;;;;4965520;28;20054;-67
2022/10/24 01:54:14;;;;;;;4.90;1.60;;;14.70;99.90;;;;;;4947393;28;20080;-67
2022/10/24 01:56:39;;;;;;;5.93;2.10;;;15.00;99.90;;;;;;4963760;28;20114;-66
2022/10/24 01:59:28;;;;;;;5.10;2.03;;;15.00;99.90;;;;;;4964382;28;20166;-67
2022/10/24 02:02:13;;;;;;;4.18;2.17;;;15.10;99.90;;;;;;4964615;28;20418;-66
2022/10/24 02:04:45;;;;;;;5.40;1.70;;;15.00;99.90;;;;;;4946113;28;20043;-67
2022/10/24 02:07:12;;;;;;;8.55;2.20;;;14.90;99.90;;;;;;4961015;28;20046;-67
2022/10/24 02:09:40;;;;;;;4.28;1.80;;;14.80;99.90;;;;;;4963929;28;20143;-67
2022/10/24 02:12:09;;;;;;;8.85;2.20;;;14.90;99.90;;;;;;4964620;28;20406;-67
2022/10/24 02:14:39;;;;;;;7.25;2.30;;;14.90;99.90;;;;;;4946402;28;20065;-67
2022/10/24 02:17:05;;;;;;;10.35;2.00;;;15.00;99.90;;;;;;4964460;28;20047;-67
2022/10/24 02:19:31;;;;;;;6.45;2.30;;;15.10;99.90;;;;;;4964610;28;20057;-67
2022/10/24 02:22:05;;;;;;;12.60;2.70;;;15.10;99.90;;;;;;5006634;23;20497;-66
2022/10/24 02:24:43;;;;;;;5.80;2.20;;;15.00;99.90;;;;;;4938941;29;20118;-67
2022/10/24 02:27:18;;;;;;;7.20;2.72;;;15.20;99.90;;;;;;4942262;29;20090;-66
2022/10/24 02:29:51;;;;;;;4.57;1.98;;;15.00;99.90;;;;;;4946216;29;20047;-66
2022/10/24 02:32:24;;;;;;;9.13;2.70;;;15.10;99.90;;;;;;4944264;29;20130;-66
2022/10/24 02:34:50;;;;;;;5.03;2.33;;;15.20;99.90;;;;;;4945168;29;20051;-67
2022/10/24 02:37:17;;;;;;;6.55;2.35;;;15.10;99.90;;;;;;4946155;29;20079;-66
2022/10/24 02:39:46;;;;;;;9.13;2.53;;;15.20;99.90;;;;;;4945049;29;20402;-66
2022/10/24 02:42:14;;;;;;;9.63;2.88;;;15.10;99.90;;;;;;4944289;29;20047;-66
2022/10/24 02:44:42;;;;;;;6.00;2.80;;;15.40;99.90;;;;;;4944589;29;20043;-66
2022/10/24 02:47:11;;;;;;;7.22;2.45;;;15.20;99.90;;;;;;4945171;29;20035;-66
2022/10/24 02:49:38;;;;;;;6.97;2.70;;;15.30;99.90;;;;;;4943531;29;20059;-66
2022/10/24 02:52:04;;;;;;;4.80;2.33;;;15.40;99.90;;;;;;4945348;29;20047;-66
2022/10/24 02:54:30;;;;;;;8.57;2.83;;;15.40;99.90;;;;;;4944205;29;20051;-66
2022/10/24 02:57:00;;;;;;;8.77;2.88;;;15.40;99.90;;;;;;4943956;29;20097;-66
2022/10/24 02:59:26;;;;;;;6.38;2.78;;;15.40;99.90;;;;;;4944328;29;20047;-66
2022/10/24 03:01:51;;;;;;;6.20;2.55;;;15.30;99.90;;;;;;4944442;29;20044;-67
2022/10/24 03:04:17;;;;;;;6.43;2.72;;;15.40;99.90;;;;;;4944496;28;20132;-66
2022/10/24 03:06:43;;;;;;;10.35;2.47;;;15.40;99.90;;;;;;4949313;28;20063;-66
2022/10/24 03:09:09;;;;;;;6.53;2.45;;;15.30;99.90;;;;;;4923962;29;20130;-66
2022/10/24 03:11:34;;;;;;;9.50;2.90;;;15.40;99.90;;;;;;4924169;29;20079;-66
2022/10/24 03:14:00;;;;;;;6.38;2.30;;;15.50;99.90;;;;;;4924493;29;20062;-67
2022/10/24 03:16:27;;;;;;;8.00;2.60;;;15.40;99.90;;;;;;4925349;29;20055;-66
2022/10/24 03:18:53;;;;;;;8.32;2.67;;;15.30;99.90;;;;;;4923872;29;20044;-66
2022/10/24 03:21:19;;;;;;;7.10;2.33;;;15.30;99.90;;;;;;4926319;29;20103;-66
2022/10/24 03:23:45;;;;;;;7.15;2.90;;;15.20;99.90;;;;;;4923101;29;20067;-66
2022/10/24 03:26:10;;;;;;;6.40;2.70;;;15.30;99.90;;;;;;4923476;29;20477;-66
2022/10/24 03:28:36;;;;;;;7.63;2.85;;;15.20;99.90;;;;;;4925524;29;20050;-66
2022/10/24 03:31:02;;;;;;;8.35;2.88;;;15.30;99.90;;;;;;4925621;29;20040;-67
2022/10/24 03:33:27;;;;;;;10.35;2.70;;;15.10;99.90;;;;;;4924243;29;20051;-66
2022/10/24 03:35:54;;;;;;;8.88;2.55;;;15.10;99.90;;;;;;4925583;29;20036;-66
2022/10/24 03:38:21;;;;;;;6.32;2.72;;;15.00;99.90;;;;;;4926300;29;20090;-66
2022/10/24 03:40:47;;;;;;;6.53;2.60;;;15.00;99.90;;;;;;4922761;29;20067;-66
2022/10/24 03:43:13;;;;;;;10.27;3.03;;;15.10;99.90;;;;;;4925750;29;20043;-66
2022/10/24 03:45:39;;;;;;;5.50;2.65;;;15.20;99.90;;;;;;4925911;29;20040;-66
2022/10/24 03:48:05;;;;;;;5.90;2.58;;;15.20;99.90;;;;;;4924238;29;20051;-66
2022/10/24 03:50:32;;;;;;;6.93;2.28;;;15.20;99.90;;;;;;4925271;29;20123;-66
2022/10/24 03:52:58;;;;;;;6.68;2.63;;;15.10;99.90;;;;;;4924217;29;20183;-66
2022/10/24 03:55:24;;;;;;;6.03;2.67;;;15.00;99.90;;;;;;4925067;29;20036;-66
2022/10/24 03:57:50;;;;;;;6.18;2.15;;;15.10;99.90;;;;;;4939030;29;20048;-66
2022/10/24 04:00:17;;;;;;;10.18;2.80;;;15.20;99.90;;;;;;4924840;29;20659;-66
2022/10/24 04:02:43;;;;;;;5.22;1.95;;;15.10;99.90;;;;;;4924842;29;20054;-66
2022/10/24 04:05:09;;;;;;;8.13;2.65;;;15.20;99.90;;;;;;4927369;29;20127;-65
2022/10/24 04:07:35;;;;;;;6.82;2.72;;;15.00;99.90;;;;;;4931825;29;20261;-66
2022/10/24 04:10:00;;;;;;;6.72;2.65;;;15.10;99.90;;;;;;4923788;29;20059;-65
2022/10/24 04:12:26;;;;;;;7.47;2.63;;;15.00;99.90;;;;;;4924604;29;20095;-66
2022/10/24 04:14:52;;;;;;;5.40;2.38;;;15.00;99.90;;;;;;4925647;29;20044;-66
2022/10/24 04:17:17;;;;;;;6.60;2.30;;;15.20;99.90;;;;;;4927882;29;20557;-66
2022/10/24 04:19:43;;;;;;;8.30;2.58;;;15.10;99.90;;;;;;4926629;29;20050;-66
2022/10/24 04:22:09;;;;;;;4.45;1.88;;;15.20;99.90;;;;;;4927419;29;20466;-66
2022/10/24 04:24:36;;;;;;;8.20;3.03;;;15.20;99.90;;;;;;4926705;29;20110;-66
2022/10/24 04:27:02;;;;;;;5.75;2.33;;;15.20;99.90;;;;;;4927542;29;20040;-66
2022/10/24 04:29:28;;;;;;;8.05;2.33;;;15.20;99.90;;;;;;4926180;29;20055;-66
2022/10/24 04:31:54;;;;;;;13.20;2.63;;;15.30;99.90;;;;;;4928325;29;20055;-66
2022/10/24 04:34:19;;;;;;;7.05;2.42;;;15.20;99.90;;;;;;4928036;29;20079;-66
2022/10/24 04:36:45;;;;;;;7.50;2.92;;;15.30;99.90;;;;;;4928668;29;20387;-66
2022/10/24 04:39:10;;;;;;;7.45;2.33;;;15.30;99.90;;;;;;4927239;29;20049;-66
2022/10/24 04:41:36;;;;;;;6.63;2.28;;;15.40;99.90;;;;;;4927401;29;20048;-66
2022/10/24 04:44:02;;;;;;;6.18;2.00;;;15.30;99.90;;;;;;4927659;29;20667;-66
2022/10/24 04:46:28;;;;;;;5.97;2.63;;;15.30;99.90;;;;;;4927913;29;20446;-66
2022/10/24 04:48:54;;;;;;;4.53;2.10;;;15.30;99.90;;;;;;4926045;29;20040;-66
2022/10/24 04:51:19;;;;;;;7.00;2.47;;;15.30;99.90;;;;;;4928148;29;20039;-66
2022/10/24 04:53:45;;;;;;;6.80;2.30;;;15.30;99.90;;;;;;4926766;29;20544;-66
2022/10/24 04:56:10;;;;;;;8.25;2.08;;;15.30;99.90;;;;;;4927049;29;20123;-66
2022/10/24 04:58:36;;;;;;;4.03;1.52;;;15.20;99.90;;;;;;4942016;29;20135;-65
2022/10/24 05:01:02;;;;;;;7.38;1.73;;;15.10;99.90;;;;;;4926783;29;20054;-66
2022/10/24 05:03:27;;;;;;;5.85;2.15;;;15.20;99.90;;;;;;4927793;29;20044;-66
2022/10/24 05:05:53;;;;;;;9.93;2.80;;;15.10;99.90;;;;;;4935735;29;20043;-66
2022/10/24 05:08:19;;;;;;;8.80;2.13;;;15.00;99.90;;;;;;4930202;29;20043;-66
2022/10/24 05:10:45;;;;;;;5.38;2.15;;;15.10;99.90;;;;;;4926545;29;20403;-66
2022/10/24 05:13:11;;;;;;;6.80;1.98;;;15.10;99.90;;;;;;4927278;29;20059;-66
2022/10/24 05:15:36;;;;;;;4.82;1.90;;;15.10;99.90;;;;;;4926838;29;20066;-66
2022/10/24 05:18:02;;;;;;;5.88;2.00;;;15.10;99.90;;;;;;4927052;29;20036;-66
2022/10/24 05:20:28;;;;;;;4.85;1.50;;;15.20;99.90;;;;;;4926754;29;20118;-67
2022/10/24 05:22:54;;;;;;;8.77;2.00;;;15.10;99.90;;;;;;4927981;29;20047;-66
2022/10/24 05:25:20;;;;;;;5.10;1.90;;;15.20;99.90;;;;;;4939502;29;20098;-66
2022/10/24 05:27:45;;;;;;;5.00;1.77;;;15.20;99.90;;;;;;4927316;29;20083;-66
2022/10/24 05:30:11;;;;;;;3.38;1.38;;;15.20;99.90;;;;;;4927511;29;20099;-66
2022/10/24 05:32:38;;;;;;;6.05;1.65;;;15.40;99.90;;;;;;4927662;29;20043;-66
2022/10/24 05:35:04;;;;;;;7.25;1.90;;;15.40;99.90;;;;;;4927948;29;20039;-66
2022/10/24 05:37:30;;;;;;;4.05;1.75;;;15.30;99.90;;;;;;4927486;29;20175;-66
2022/10/24 05:39:55;;;;;;;6.18;1.70;;;15.30;99.90;;;;;;4926378;29;20126;-66
2022/10/24 05:42:21;;;;;;;4.50;1.40;;;15.20;99.90;;;;;;4926920;29;20044;-66
2022/10/24 05:44:46;;;;;;;9.55;1.90;;;15.10;99.90;;;;;;4927677;29;20368;-66
2022/10/24 05:47:12;;;;;;;4.68;1.73;;;15.10;99.90;;;;;;4926281;29;20146;-66
2022/10/24 05:49:38;;;;;;;4.63;1.70;;;15.10;99.90;;;;;;4926744;29;20043;-66
2022/10/24 05:52:04;;;;;;;4.78;1.73;;;15.10;99.90;;;;;;4925622;29;20044;-66
2022/10/24 05:54:29;;;;;;;3.53;1.30;;;15.20;99.90;;;;;;4925807;29;20058;-67
2022/10/24 05:56:55;;;;;;;3.25;1.52;;;15.00;99.90;;;;;;4927022;29;20048;-66
2022/10/24 05:59:20;;;;;;;7.35;1.92;;;15.10;99.90;;;;;;4924265;29;20076;-66
2022/10/24 06:01:46;;;;;;;7.47;1.73;;;15.10;99.90;;;;;;4926394;29;20411;-66
2022/10/24 06:04:12;;;;;;;6.40;1.67;;;15.00;99.90;;;;;;4956980;28;20393;-66
2022/10/24 06:06:42;;;;;;;3.55;1.45;;;15.10;99.90;;;;;;4967355;28;20044;-66
2022/10/24 06:09:09;;;;;;;5.35;1.60;;;15.00;99.90;;;;;;4924334;29;20497;-66
2022/10/24 06:11:35;;;;;;;6.72;1.77;;;14.90;99.90;;;;;;4925847;29;20426;-66
2022/10/24 06:14:00;;;;;;;4.88;1.70;;;15.00;99.90;;;;;;4941297;29;20048;-67
2022/10/24 06:16:29;;;;;;;6.90;1.90;;;14.90;99.90;;;;;;4940329;29;20068;-66
2022/10/24 06:18:55;;;;;;;8.27;2.10;;;15.00;99.90;;;;;;4957319;28;20098;-66
2022/10/24 06:21:20;;;;;;;3.92;1.70;;;14.90;99.90;;;;;;4925390;29;20052;-66
2022/10/24 06:23:46;;;;;;;5.75;2.15;;;14.90;99.90;;;;;;4924359;29;20877;-66
2022/10/24 06:26:13;;;;;;;9.68;1.85;;;14.90;99.90;;;;;;4938461;29;20044;-66
2022/10/24 06:28:39;;;;;;;7.80;2.03;;;15.00;99.90;;;;;;4929830;29;20486;-66
2022/10/24 06:31:06;;;;;;;6.55;1.63;;;15.00;99.90;;;;;;4944448;29;20045;-66
2022/10/24 06:33:32;;;;;;;7.00;1.65;;;15.00;99.90;;;;;;4943868;29;20122;-67
2022/10/24 06:36:00;;;;;;;3.20;1.20;;;15.00;99.90;;;;;;4945317;29;20143;-66
2022/10/24 06:38:26;;;;;;;3.85;1.40;;;15.10;99.90;;;;;;4944136;28;20139;-66
2022/10/24 06:40:52;;;;;;;6.20;1.92;;;15.10;99.90;;;;;;4944422;28;20086;-66
2022/10/24 06:43:18;;;;;;;7.22;1.67;;;15.20;99.90;;;;;;4943888;29;20039;-66
2022/10/24 06:45:44;;;;;;;6.05;1.58;;;15.20;99.90;;;;;;4945420;29;20390;-66
2022/10/24 06:48:10;;;;;;;7.53;1.90;;;15.20;99.90;;;;;;4945158;29;20523;-66
2022/10/24 06:50:39;;;;;;;6.47;1.67;;;15.30;99.90;;;;;;4944187;29;20043;-66
2022/10/24 06:53:05;;;;;;;3.63;1.17;;;15.40;99.90;;;;;;4944394;29;20147;-63
2022/10/24 06:55:31;;;;;;;6.07;1.58;;;15.30;99.90;;;;;;4944041;29;20094;-64
2022/10/24 06:57:57;;;;;;;8.00;1.40;;;15.30;99.90;;;;;;4944092;29;20681;-66
2022/10/24 07:00:22;;;;;;;7.03;1.30;;;15.30;99.90;;;;;;4944065;29;20659;-67
2022/10/24 07:02:48;;;;;;;3.15;1.80;;;15.30;99.90;;;;;;4944620;29;20101;-65
2022/10/24 07:05:14;;;;;;;5.57;1.67;;;15.20;99.90;;;;;;4938132;29;20115;-66
2022/10/24 07:07:41;;;;;;;9.85;1.95;;;15.20;99.90;;;;;;4932219;29;20055;-65
2022/10/24 07:10:09;;;;;;;4.03;1.60;;;15.30;99.90;;;;;;4925079;29;20420;-66
2022/10/24 07:12:34;;;;;;;5.63;1.63;;;15.20;99.90;;;;;;4925489;29;20055;-66
2022/10/24 07:15:00;;;;;;;6.38;1.73;;;15.30;99.90;;;;;;4925383;29;20039;-65
2022/10/24 07:17:26;;;;;;;5.15;1.73;;;15.30;99.90;;;;;;4926224;29;20751;-66
2022/10/24 07:19:53;;;;;;;5.38;1.35;;;15.30;99.90;;;;;;4926427;29;20122;-66
2022/10/24 07:22:19;;;;;;;10.23;2.00;;;15.40;99.90;;;;;;4926290;29;20195;-66
2022/10/24 07:24:45;;;;;;;8.73;1.65;;;15.50;99.90;;;;;;4924819;29;20122;-66
2022/10/24 07:27:11;;;;;;;6.68;1.73;;;15.40;99.90;;;;;;4923018;29;20048;-65
2022/10/24 07:29:38;;;;;;;4.88;1.27;;;15.50;99.90;;;;;;4925155;29;20459;-65
2022/10/24 07:32:04;;;;;;;5.15;1.50;;;15.70;99.90;;;;;;4956796;28;20047;-67
2022/10/24 07:34:30;;;;;;;5.32;2.28;;;15.70;99.90;;;;;;4924673;28;20055;-66
2022/10/24 07:36:55;;;;;;;5.35;1.23;;;15.80;99.90;;;;;;4935288;28;20051;-65
2022/10/24 07:39:21;;;;;;;4.47;1.10;;;15.80;99.90;;;;;;4943149;29;20114;-65
2022/10/24 07:41:47;;;;;;;4.85;1.30;;;15.80;99.90;;;;;;4943202;29;20465;-65
2022/10/24 07:44:12;;;;;;;6.32;1.45;;;15.80;99.90;;;;;;4943390;29;20055;-65
2022/10/24 07:46:40;;;;;;;4.50;1.35;;;15.90;99.90;;;;;;4943683;29;20035;-65
2022/10/24 07:49:07;;;;;;;5.68;1.13;;;15.90;99.90;;;;;;4942423;28;20055;-67
2022/10/24 07:51:33;;;;;;;5.22;1.20;;;15.90;99.90;;;;;;4947567;29;20051;-65
2022/10/24 07:54:00;;;;;;;4.72;1.05;;;15.90;99.90;;;;;;4946487;29;20158;-64
2022/10/24 07:56:26;;;;;;;3.70;1.02;;;15.90;99.90;;;;;;4947263;29;20039;-65
2022/10/24 07:58:51;;;;;;;4.68;1.10;;;16.00;99.90;;;;;;4947069;29;20051;-64
2022/10/24 08:01:22;;;;;;;7.30;1.25;;;16.00;99.90;;;;;;4946040;29;20043;-65
2022/10/24 08:03:48;;;;;;;4.80;1.13;;;16.00;99.90;;;;;;4947910;29;20059;-66
2022/10/24 08:06:18;;;;;;;3.38;1.08;;;16.00;99.90;;;;;;4941164;29;20371;-66
2022/10/24 08:08:44;;;;;;;3.53;0.75;;;16.10;99.90;;;;;;4927467;29;20640;-66
2022/10/24 08:11:13;;;;;;;4.55;1.30;;;16.20;99.90;;;;;;4928249;29;20036;-66
2022/10/24 08:13:39;;;;;;;6.05;1.27;;;16.30;99.90;;;;;;4928593;29;20047;-65
2022/10/24 08:16:07;;;;;;;4.22;1.40;;;16.40;99.90;;;;;;4928795;29;20053;-66
2022/10/24 08:18:32;;;;;;;7.97;1.40;;;16.40;99.90;;;;;;4929220;29;20368;-66
2022/10/24 08:21:00;;;;;;;4.70;1.15;;;16.40;99.90;;;;;;4926745;29;20059;-65
2022/10/24 08:23:27;;;;;;;6.53;1.48;;;16.40;99.90;;;;;;4927875;29;20130;-66
2022/10/24 08:25:52;;;;;;;7.75;1.20;;;16.50;99.90;;;;;;4928421;29;20095;-65
2022/10/24 08:28:18;;;;;;;6.57;1.30;;;16.50;99.90;;;;;;4927809;29;20087;-66
2022/10/24 08:30:44;;;;;;;4.20;1.20;;;16.50;99.90;;;;;;4927854;29;20067;-65
2022/10/24 08:33:09;;;;;;;3.95;1.40;;;16.30;99.90;;;;;;4927202;29;20399;-66
2022/10/24 08:35:36;;;;;;;4.07;1.40;;;16.30;99.90;;;;;;4920202;29;20379;-65
2022/10/24 08:38:01;;;;;;;7.40;1.80;;;16.30;99.90;;;;;;4926772;29;20709;-65
2022/10/24 08:40:27;;;;;;;5.60;1.40;;;16.40;99.90;;;;;;4924896;29;20051;-65
2022/10/24 08:42:53;;;;;;;4.45;1.00;;;16.50;99.90;;;;;;4926508;29;20044;-66
2022/10/24 08:45:37;;;;;;;7.25;1.77;;;16.50;99.90;;;;;;4926285;29;20139;-67
2022/10/24 08:48:07;;;;;;;3.22;1.05;;;16.50;99.90;;;;;;4926049;29;20475;-66
2022/10/24 08:50:35;;;;;;;2.25;0.85;;;16.50;99.90;;;;;;4927219;29;20388;-71
2022/10/24 08:53:13;;;;;;;4.07;1.30;;;16.50;99.90;;;;;;4926214;29;20048;-66
2022/10/24 08:55:54;;;;;;;5.22;1.35;;;16.60;99.90;;;;;;4926179;29;20055;-67
2022/10/24 08:58:23;;;;;;;4.57;1.05;;;16.60;99.90;;;;;;4927054;29;20463;-67
2022/10/24 09:00:52;;;;;;;7.55;1.38;;;16.50;99.90;;;;;;4926930;29;20390;-67
2022/10/24 09:03:44;;;;;;;5.47;1.10;;;16.50;99.90;;;;;;4927353;29;20044;-66
2022/10/24 09:06:23;;;;;;;3.92;1.33;;;16.50;99.90;;;;;;4940755;29;20051;-68
2022/10/24 09:08:51;;;;;;;9.15;1.45;;;16.50;99.90;;;;;;4927551;29;20043;-66
2022/10/24 09:11:25;;;;;;;4.38;1.42;;;16.50;99.90;;;;;;4945884;29;20063;-67
2022/10/24 09:13:51;;;;;;;4.72;1.38;;;16.60;99.90;;;;;;4947221;29;20047;-67
2022/10/24 09:16:21;;;;;;;5.20;1.15;;;16.60;99.90;;;;;;4946860;29;20045;-67
2022/10/24 09:18:48;;;;;;;4.55;1.45;;;16.70;99.90;;;;;;4945313;29;20079;-68
2022/10/24 09:21:14;;;;;;;5.53;1.20;;;16.60;99.90;;;;;;4946258;29;20050;-67
2022/10/24 09:23:42;;;;;;;6.90;1.80;;;16.60;99.90;;;;;;4945205;29;20194;-68
2022/10/24 09:26:16;;;;;;;6.55;1.70;;;16.60;99.90;;;;;;4947570;29;20103;-67
2022/10/24 09:28:42;;;;;;;6.30;1.23;;;16.60;99.90;;;;;;4945448;29;20074;-68
2022/10/24 09:31:16;;;;;;;5.85;1.33;;;16.60;99.90;;;;;;4947210;29;20082;-67
2022/10/24 09:33:44;;;;;;;5.88;1.35;;;16.60;99.90;;;;;;4946208;29;20134;-68
2022/10/24 09:36:13;;;;;;;3.85;0.95;;;16.60;99.90;;;;;;4947050;29;20664;-67
2022/10/24 09:38:41;;;;;;;4.15;1.10;;;16.70;99.90;;;;;;4946416;28;20051;-67
2022/10/24 09:41:12;;;;;;;7.25;1.90;;;16.70;99.90;;;;;;4946751;29;20130;-66
2022/10/24 09:43:45;;;;;;;5.38;1.17;;;16.70;99.90;;;;;;4945859;29;20046;-67
2022/10/24 09:46:18;;;;;;;6.45;1.05;;;16.80;99.90;;;;;;4945556;29;20047;-66
2022/10/24 09:48:50;;;;;;;7.20;1.30;;;16.90;99.90;;;;;;4945711;29;20437;-67
2022/10/24 09:51:20;;;;;;;7.20;1.38;;;16.80;99.90;;;;;;4945323;29;20489;-67
2022/10/24 09:54:01;;;;;;;3.35;0.95;;;16.80;99.90;;;;;;4945827;29;20043;-67
2022/10/24 09:56:40;;;;;;;3.17;1.02;;;16.80;99.90;;;;;;4946750;29;20557;-66
2022/10/24 09:59:31;;;;;;;6.50;0.90;;;16.80;99.90;;;;;;4946077;29;20520;-67
2022/10/24 10:02:18;;;;;;;6.20;1.60;;;16.80;99.90;;;;;;4946753;29;20327;-67
2022/10/24 10:04:46;;;;;;;8.25;1.77;;;16.70;99.90;;;;;;4943392;29;20099;-67
2022/10/24 10:07:16;;;;;;;5.05;1.20;;;16.70;99.90;;;;;;4935539;29;20036;-67
2022/10/24 10:09:54;;;;;;;5.03;1.17;;;16.90;99.90;;;;;;4926999;29;20050;-67
2022/10/24 10:12:35;;;;;;;4.72;1.27;;;17.00;99.90;;;;;;4926133;29;20850;-67
2022/10/24 10:15:22;;;;;;;3.78;1.00;;;16.90;99.90;;;;;;4927036;29;20055;-66
2022/10/24 10:17:53;;;;;;;5.85;1.45;;;16.90;99.90;;;;;;4925038;29;20079;-66
2022/10/24 10:20:36;;;;;;;6.13;1.30;;;16.90;99.90;;;;;;4957429;28;20055;-66
2022/10/24 10:23:21;;;;;;;5.32;1.40;;;17.10;99.90;;;;;;4924479;29;20048;-66
2022/10/24 10:25:46;;;;;;;3.25;1.08;;;17.50;99.90;;;;;;4926240;29;20048;-66
2022/10/24 10:28:22;;;;;;;3.83;1.05;;;17.50;99.90;;;;;;4926632;29;20716;-66
2022/10/24 10:30:53;;;;;;;6.55;0.95;;;17.70;99.90;;;;;;4957176;28;20134;-66
2022/10/24 10:33:29;;;;;;;5.88;1.40;;;17.40;99.90;;;;;;4926599;29;20817;-66
2022/10/24 10:36:26;;;;;;;5.25;1.30;;;17.50;99.90;;;;;;4926629;29;20044;-66
2022/10/24 10:39:10;;;;;;;5.43;1.15;;;17.50;99.90;;;;;;4923847;29;20071;-67
2022/10/24 10:42:05;;;;;;;7.47;1.23;;;17.50;99.90;;;;;;4927177;29;20523;-67
2022/10/24 10:44:45;;;;;;;4.60;1.02;;;17.30;99.90;;;;;;4905447;29;20475;-67
2022/10/24 10:47:18;;;;;;;6.72;1.15;;;17.20;99.90;;;;;;4927690;29;20058;-67
2022/10/24 10:49:47;;;;;;;4.72;1.17;;;17.20;99.90;;;;;;4926177;29;20067;-67
2022/10/24 10:52:28;;;;;;;5.65;0.60;;;17.20;99.90;;;;;;4926715;29;20049;-67
2022/10/24 10:55:17;;;;;;;6.88;1.10;;;17.20;99.90;;;;;;4925353;29;20051;-67
2022/10/24 10:57:58;;;;;;;6.57;1.13;;;17.20;99.90;;;;;;4927069;29;20040;-67
2022/10/24 11:00:48;;;;;;;3.80;0.80;;;17.20;99.90;;;;;;4925466;29;20099;-67
2022/10/24 11:03:46;;;;;;;4.72;0.80;;;17.20;99.90;;;;;;4926980;29;20110;-67
2022/10/24 11:06:59;;;;;;;6.57;0.88;;;17.20;99.90;;;;;;4901046;29;20051;-66
2022/10/24 11:10:04;;;;;;;5.75;1.05;;;17.30;99.90;;;;;;4921402;29;20052;-67
2022/10/24 11:12:39;;;;;;;3.70;0.68;;;17.30;99.90;;;;;;4920175;29;20164;-67
2022/10/24 11:15:30;;;;;;;4.43;0.73;;;17.70;99.90;;;;;;4925840;29;20044;-67
2022/10/24 11:18:07;;;;;;;3.45;0.70;;;18.00;99.90;;;;;;4926219;29;20044;-67
2022/10/24 11:20:41;;;;;;;6.20;0.98;;;18.20;99.90;;;;;;4925034;29;20087;-67
2022/10/24 11:23:24;;;;;;;5.38;1.00;;;17.80;99.90;;;;;;4924288;29;20611;-67
2022/10/24 11:26:09;;;;;;;3.92;0.80;;;18.10;99.90;;;;;;4931229;29;20414;-67
2022/10/24 11:28:59;;;;;;;5.90;0.77;;;18.10;99.90;;;;;;4943516;29;20123;-68
2022/10/24 11:31:31;;;;;;;2.83;0.90;;;17.90;99.90;;;;;;4943235;29;20059;-66
2022/10/24 11:34:22;;;;;;;4.40;0.65;;;17.70;99.90;;;;;;4944576;29;20134;-66
2022/10/24 11:37:04;;;;;;;1.60;0.57;;;17.60;99.90;;;;;;4933841;28;20055;-67
2022/10/24 11:39:53;;;;;;;6.05;0.88;;;17.40;99.90;;;;;;4943790;29;20047;-66
2022/10/24 11:42:43;;;;;;;3.88;0.90;;;17.30;99.90;;;;;;4943288;29;20057;-66
2022/10/24 11:45:38;;;;;;;2.67;0.80;;;17.50;99.90;;;;;;4942091;29;20043;-67
2022/10/24 11:48:31;;;;;;;3.85;1.00;;;17.40;99.90;;;;;;4929190;28;20098;-68
2022/10/24 11:51:20;;;;;;;4.70;0.85;;;17.40;99.90;;;;;;4943283;29;20066;-67
2022/10/24 11:53:59;;;;;;;4.22;0.70;;;17.30;99.90;;;;;;4942731;29;20043;-68
2022/10/24 11:56:41;;;;;;;3.45;0.88;;;17.40;99.90;;;;;;4943627;29;20051;-64
2022/10/24 11:59:22;;;;;;;4.45;0.90;;;17.10;99.90;;;;;;4942060;29;20118;-64
2022/10/24 12:01:54;;;;;;;2.67;0.70;;;17.00;99.90;;;;;;4945113;29;20118;-64
2022/10/24 12:04:26;;;;;;;3.38;0.88;;;17.10;99.90;;;;;;4942637;29;20105;-64
2022/10/24 12:06:59;;;;;;;2.53;0.55;;;17.00;99.90;;;;;;4933846;29;20090;-64
2022/10/24 12:09:34;;;;;;;3.60;0.80;;;17.00;99.90;;;;;;4923217;29;20048;-64
2022/10/24 12:12:14;;;;;;;4.93;1.08;;;17.30;99.90;;;;;;4925033;29;20059;-63
2022/10/24 12:14:54;;;;;;;3.25;1.13;;;17.40;99.90;;;;;;4925058;29;20058;-64
2022/10/24 12:17:31;;;;;;;4.35;0.93;;;17.40;99.90;;;;;;4925509;29;20040;-63
2022/10/24 12:20:00;;;;;;;1.40;0.50;;;17.30;99.90;;;;;;4923980;29;20140;-64
2022/10/24 12:22:35;;;;;;;6.10;0.82;;;17.20;99.90;;;;;;4924318;29;20055;-64
2022/10/24 12:25:21;;;;;;;7.75;1.20;;;17.30;99.90;;;;;;4924658;29;20043;-64
2022/10/24 12:27:53;;;;;;;4.85;0.93;;;17.00;99.90;;;;;;4924677;29;20099;-63
2022/10/24 12:30:23;;;;;;;2.65;0.90;;;17.30;99.90;;;;;;4925658;29;20134;-64
2022/10/24 12:33:06;;;;;;;4.78;0.90;;;17.30;99.90;;;;;;4925503;29;20079;-64
2022/10/24 12:35:34;;;;;;;4.20;0.82;;;17.40;99.90;;;;;;4925029;29;20514;-64
2022/10/24 12:38:01;;;;;;;3.03;0.70;;;17.50;99.90;;;;;;4928346;28;20090;-63
2022/10/24 12:40:45;;;;;;;5.82;1.08;;;17.50;99.90;;;;;;4946299;29;20446;-57
2022/10/24 12:43:27;;;;;;;3.55;0.88;;;17.40;99.90;;;;;;4947408;28;20395;-63
2022/10/24 12:45:54;;;;;;;7.38;0.95;;;17.30;99.90;;;;;;4947072;29;20406;-64
2022/10/24 12:48:36;;;;;;;4.75;0.88;;;17.20;99.90;;;;;;4948156;29;20086;-64
2022/10/24 12:51:24;;;;;;;5.55;1.08;;;17.10;99.90;;;;;;4946991;29;20051;-64
2022/10/24 12:54:11;;;;;;;5.97;1.10;;;17.30;99.90;;;;;;4947149;29;20047;-64
2022/10/24 12:56:52;;;;;;;6.57;1.13;;;17.20;99.90;;;;;;4945568;29;20488;-64
2022/10/24 12:59:28;;;;;;;3.78;1.00;;;17.20;99.90;;;;;;4947362;29;20043;-64
2022/10/24 13:02:12;;;;;;;4.75;1.02;;;17.10;99.90;;;;;;4947498;29;20047;-65
2022/10/24 13:05:01;;;;;;;6.60;1.10;;;17.20;99.90;;;;;;4946234;29;20515;-64